Time;durP1;ratioP1;P1;durP2;ratioP2;P2;SDS_P1;SDS_P2;PMS_P1;PMS_P2;Temp;Humidity;BMP_temperature;BMP_pressure;BME280_temperature;BME280_humidity;BME280_pressure;Samples;Min_cycle;Max_cycle;Signal;HPM_P1;HPM_P2
2023/08/12 00:00:34;;;;;;;15.07;3.70;;;28.80;99.90;;;;;;5054295;22;20021;-49
2023/08/12 00:03:00;;;;;;;11.25;3.17;;;28.80;99.90;;;;;;4988219;28;20022;-49
2023/08/12 00:05:25;;;;;;;14.32;3.42;;;28.80;99.90;;;;;;4986622;28;20045;-50
2023/08/12 00:07:51;;;;;;;15.90;3.92;;;28.70;99.90;;;;;;4989896;28;20494;-49
2023/08/12 00:10:17;;;;;;;14.00;4.03;;;28.70;99.90;;;;;;4990534;28;20035;-49
2023/08/12 00:12:43;;;;;;;13.77;3.40;;;28.70;99.90;;;;;;4975438;28;20026;-48
2023/08/12 00:15:10;;;;;;;14.63;4.60;;;28.70;99.90;;;;;;4988623;28;20066;-49
2023/08/12 00:17:37;;;;;;;10.98;3.53;;;28.70;99.90;;;;;;4985516;28;20023;-49
2023/08/12 00:20:08;;;;;;;14.98;3.38;;;28.70;99.90;;;;;;4991503;28;20034;-49
2023/08/12 00:22:34;;;;;;;11.75;3.55;;;28.70;99.90;;;;;;4986074;28;20386;-47
2023/08/12 00:25:01;;;;;;;10.00;3.35;;;28.70;99.90;;;;;;4983410;28;20039;-49
2023/08/12 00:27:26;;;;;;;7.22;3.45;;;28.70;99.90;;;;;;4969130;28;20378;-49
2023/08/12 00:29:52;;;;;;;13.40;3.33;;;28.60;99.90;;;;;;4974331;28;20042;-49
2023/08/12 00:32:18;;;;;;;7.55;2.55;;;28.70;99.90;;;;;;4974594;28;20027;-48
2023/08/12 00:34:44;;;;;;;9.27;3.45;;;28.60;99.90;;;;;;4975753;28;20045;-49
2023/08/12 00:37:10;;;;;;;10.27;3.33;;;28.60;99.90;;;;;;4973415;28;20088;-48
2023/08/12 00:39:35;;;;;;;12.73;3.25;;;28.60;99.90;;;;;;4974609;28;20014;-49
2023/08/12 00:42:01;;;;;;;11.60;3.03;;;28.60;99.90;;;;;;4975626;28;20033;-48
2023/08/12 00:44:27;;;;;;;13.13;3.42;;;28.50;99.90;;;;;;4974268;28;20019;-49
2023/08/12 00:46:54;;;;;;;10.10;2.60;;;28.50;99.90;;;;;;4973231;28;20392;-48
2023/08/12 00:49:20;;;;;;;;;;;28.50;99.90;;;;;;4975364;28;20022;-49
2023/08/12 00:51:49;;;;;;;11.90;2.90;;;28.60;99.90;;;;;;4974908;28;19910;-48
2023/08/12 00:54:16;;;;;;;7.47;2.13;;;28.60;99.90;;;;;;4973561;28;20554;-49
2023/08/12 00:56:43;;;;;;;10.55;3.17;;;28.50;99.90;;;;;;4970051;28;20039;-49
2023/08/12 00:59:10;;;;;;;7.15;2.22;;;28.50;99.90;;;;;;4973117;28;20093;-48
2023/08/12 01:01:40;;;;;;;9.88;3.28;;;28.50;99.90;;;;;;4973890;28;20046;-50
2023/08/12 01:04:06;;;;;;;12.27;2.33;;;28.60;99.90;;;;;;4968923;28;20035;-49
2023/08/12 01:06:33;;;;;;;11.20;2.53;;;28.50;99.90;;;;;;4973342;28;20031;-49
2023/08/12 01:08:59;;;;;;;10.88;2.10;;;28.50;99.90;;;;;;4972730;28;20110;-49
2023/08/12 01:11:31;;;;;;;10.63;2.73;;;28.50;99.90;;;;;;4973150;28;20031;-49
2023/08/12 01:14:09;;;;;;;8.18;2.38;;;28.40;99.90;;;;;;4969357;28;20027;-49
2023/08/12 01:16:39;;;;;;;9.65;2.33;;;28.50;99.90;;;;;;4972532;28;20496;-49
2023/08/12 01:19:09;;;;;;;11.75;2.92;;;28.50;99.90;;;;;;4971455;28;20029;-49
2023/08/12 01:21:40;;;;;;;7.03;2.08;;;28.50;99.90;;;;;;4974009;28;20023;-48
2023/08/12 01:24:07;;;;;;;7.97;2.72;;;28.50;99.90;;;;;;4975397;28;20480;-50
2023/08/12 01:26:32;;;;;;;10.60;2.33;;;28.50;99.90;;;;;;4971736;28;20030;-49
2023/08/12 01:28:58;;;;;;;9.15;2.38;;;28.50;99.90;;;;;;4971325;28;20085;-49
2023/08/12 01:31:37;;;;;;;9.13;2.45;;;28.60;99.90;;;;;;4971505;28;20045;-49
2023/08/12 01:34:40;;;;;;;11.40;2.45;;;28.60;99.90;;;;;;4973157;28;20435;-49
2023/08/12 01:37:11;;;;;;;9.02;2.85;;;28.60;99.90;;;;;;4970537;28;20344;-48
2023/08/12 01:39:38;;;;;;;11.02;2.20;;;28.60;99.90;;;;;;4967779;28;20027;-49
2023/08/12 01:42:05;;;;;;;8.20;2.10;;;28.60;99.90;;;;;;4972507;28;20033;-49
2023/08/12 01:44:31;;;;;;;11.30;2.08;;;28.60;99.90;;;;;;4974273;28;20118;-49
2023/08/12 01:46:57;;;;;;;7.05;2.22;;;28.60;99.90;;;;;;4974233;28;20098;-49
2023/08/12 01:49:24;;;;;;;11.07;2.40;;;28.60;99.90;;;;;;4969583;28;20113;-48
2023/08/12 01:51:50;;;;;;;10.48;2.15;;;28.50;99.90;;;;;;4973545;28;20034;-49
2023/08/12 01:54:15;;;;;;;5.47;2.10;;;28.60;99.90;;;;;;4972003;28;20471;-49
2023/08/12 01:56:41;;;;;;;9.25;2.45;;;28.50;99.90;;;;;;4969496;28;20098;-48
2023/08/12 01:59:07;;;;;;;12.02;2.05;;;28.60;99.90;;;;;;4974041;28;20038;-49
2023/08/12 02:01:33;;;;;;;8.35;2.53;;;28.50;99.90;;;;;;4993378;22;20491;-65
2023/08/12 02:03:59;;;;;;;10.93;3.38;;;28.60;99.90;;;;;;4991961;28;20035;-66
2023/08/12 02:06:24;;;;;;;13.02;2.33;;;28.50;99.90;;;;;;4991022;28;20029;-66
2023/08/12 02:08:50;;;;;;;11.07;2.55;;;28.50;99.90;;;;;;4992576;28;20060;-65
2023/08/12 02:11:16;;;;;;;13.57;2.95;;;28.50;99.90;;;;;;4991570;28;20120;-66
2023/08/12 02:13:42;;;;;;;7.25;2.10;;;28.50;99.90;;;;;;4992775;28;20041;-66
2023/08/12 02:16:08;;;;;;;11.32;2.10;;;28.50;99.90;;;;;;4990726;28;20037;-66
2023/08/12 02:18:35;;;;;;;10.57;2.10;;;28.50;99.90;;;;;;4992736;28;20025;-66
2023/08/12 02:21:00;;;;;;;6.45;1.90;;;28.50;99.90;;;;;;4992873;28;20076;-66
2023/08/12 02:23:26;;;;;;;9.82;2.35;;;28.50;99.90;;;;;;4992192;28;20418;-66
2023/08/12 02:25:54;;;;;;;8.90;2.45;;;28.50;99.90;;;;;;4988242;28;20588;-65
2023/08/12 02:28:20;;;;;;;4.65;1.77;;;28.50;99.90;;;;;;4990042;28;20101;-66
2023/08/12 02:30:45;;;;;;;7.22;2.40;;;28.50;99.90;;;;;;4990093;28;20165;-65
2023/08/12 02:33:11;;;;;;;12.13;2.20;;;28.50;99.90;;;;;;4990296;28;20021;-65
2023/08/12 02:35:37;;;;;;;10.18;2.58;;;28.50;99.90;;;;;;4989070;28;20057;-65
2023/08/12 02:38:03;;;;;;;18.15;2.58;;;28.60;99.90;;;;;;4991304;28;20022;-65
2023/08/12 02:40:29;;;;;;;11.05;2.50;;;28.50;99.90;;;;;;4992386;28;20497;-65
2023/08/12 02:42:55;;;;;;;11.13;2.30;;;28.60;99.90;;;;;;4992197;28;20030;-64
2023/08/12 02:45:21;;;;;;;9.88;3.63;;;28.60;99.90;;;;;;4992416;28;20471;-65
2023/08/12 02:47:46;;;;;;;7.80;2.72;;;28.60;99.90;;;;;;4990909;28;20117;-66
2023/08/12 02:50:12;;;;;;;8.77;2.67;;;28.60;99.90;;;;;;4992191;28;20033;-65
2023/08/12 02:52:38;;;;;;;11.77;2.35;;;28.60;99.90;;;;;;4992214;28;20040;-65
2023/08/12 02:55:04;;;;;;;10.98;3.10;;;28.60;99.90;;;;;;4991954;28;20026;-65
2023/08/12 02:57:30;;;;;;;11.15;2.70;;;28.60;99.90;;;;;;4992425;28;20034;-65
2023/08/12 02:59:55;;;;;;;11.05;2.95;;;28.60;99.90;;;;;;4991912;28;20475;-65
2023/08/12 03:02:21;;;;;;;8.95;2.28;;;28.70;99.90;;;;;;4992555;28;20665;-65
2023/08/12 03:04:47;;;;;;;8.85;1.95;;;28.60;99.90;;;;;;4991972;28;20069;-65
2023/08/12 03:07:12;;;;;;;11.82;3.78;;;28.60;99.90;;;;;;4991877;28;20023;-65
2023/08/12 03:09:38;;;;;;;15.23;2.65;;;28.70;99.90;;;;;;4992050;28;20057;-65
2023/08/12 03:12:04;;;;;;;11.98;2.30;;;28.70;99.90;;;;;;4992180;28;20080;-65
2023/08/12 03:14:31;;;;;;;8.05;2.70;;;28.70;99.90;;;;;;4991981;28;20407;-65
2023/08/12 03:16:57;;;;;;;8.90;3.07;;;28.70;99.90;;;;;;4992069;28;20086;-65
2023/08/12 03:19:22;;;;;;;10.48;2.53;;;28.70;99.90;;;;;;4991913;28;20018;-66
2023/08/12 03:21:48;;;;;;;6.60;2.03;;;28.70;99.90;;;;;;4991876;28;20032;-64
2023/08/12 03:24:14;;;;;;;5.35;2.20;;;28.70;99.90;;;;;;4991798;28;20018;-65
2023/08/12 03:26:39;;;;;;;13.38;1.85;;;28.70;99.90;;;;;;4991971;28;20033;-65
2023/08/12 03:29:05;;;;;;;8.90;2.10;;;28.70;99.90;;;;;;4991814;28;20141;-65
2023/08/12 03:31:31;;;;;;;7.90;1.75;;;28.70;99.90;;;;;;4991849;28;20101;-64
2023/08/12 03:33:57;;;;;;;8.50;2.45;;;28.70;99.90;;;;;;4990582;28;20112;-65
2023/08/12 03:36:22;;;;;;;6.32;1.90;;;28.70;99.90;;;;;;4991703;28;20035;-65
2023/08/12 03:38:51;;;;;;;12.13;3.08;;;28.70;99.90;;;;;;4991671;28;20459;-65
2023/08/12 03:41:17;;;;;;;11.13;2.60;;;28.70;99.90;;;;;;4991554;28;20049;-63
2023/08/12 03:43:43;;;;;;;13.18;3.38;;;28.70;99.90;;;;;;4991816;28;20029;-65
2023/08/12 03:46:09;;;;;;;12.18;2.90;;;28.70;99.90;;;;;;4991514;28;20478;-65
2023/08/12 03:48:34;;;;;;;10.88;3.17;;;28.70;99.90;;;;;;4994478;28;20072;-65
2023/08/12 03:51:00;;;;;;;12.32;2.45;;;28.70;99.90;;;;;;4995476;28;20030;-65
2023/08/12 03:53:26;;;;;;;4.88;2.17;;;28.70;99.90;;;;;;4995511;28;20487;-66
2023/08/12 03:55:52;;;;;;;11.55;2.70;;;28.70;99.90;;;;;;4994403;28;20510;-65
2023/08/12 03:58:17;;;;;;;16.48;2.72;;;28.70;99.90;;;;;;4995434;28;20410;-65
2023/08/12 04:00:43;;;;;;;9.05;2.83;;;28.70;99.90;;;;;;4994201;28;20541;-65
2023/08/12 04:03:09;;;;;;;14.07;2.70;;;28.70;99.90;;;;;;4995586;28;20022;-65
2023/08/12 04:05:35;;;;;;;15.50;2.78;;;28.70;99.90;;;;;;4995765;28;20088;-66
2023/08/12 04:08:00;;;;;;;8.32;2.33;;;28.70;99.90;;;;;;4994226;28;20026;-65
2023/08/12 04:10:26;;;;;;;13.15;2.80;;;28.60;99.90;;;;;;4994075;28;20034;-67
2023/08/12 04:12:52;;;;;;;12.93;2.08;;;28.60;99.90;;;;;;4995512;28;20022;-64
2023/08/12 04:15:18;;;;;;;5.60;2.63;;;28.60;99.90;;;;;;4995161;28;20064;-66
2023/08/12 04:17:44;;;;;;;7.47;2.08;;;28.70;99.90;;;;;;4995090;28;20022;-63
2023/08/12 04:20:10;;;;;;;8.32;1.83;;;28.70;99.90;;;;;;4995168;28;20136;-64
2023/08/12 04:22:36;;;;;;;6.78;2.35;;;28.60;99.90;;;;;;4995436;28;20018;-66
2023/08/12 04:25:03;;;;;;;10.00;2.90;;;28.60;99.90;;;;;;4995070;28;20026;-66
2023/08/12 04:27:28;;;;;;;7.55;2.22;;;28.60;99.90;;;;;;4994835;28;20026;-64
2023/08/12 04:29:54;;;;;;;11.73;3.13;;;28.60;99.90;;;;;;4995250;28;20018;-64
2023/08/12 04:32:20;;;;;;;9.82;2.30;;;28.60;99.90;;;;;;4994998;28;20034;-66
2023/08/12 04:34:46;;;;;;;7.38;2.30;;;28.60;99.90;;;;;;4994709;28;20022;-66
2023/08/12 04:37:12;;;;;;;11.73;2.75;;;28.60;99.90;;;;;;4994797;28;20035;-66
2023/08/12 04:39:37;;;;;;;13.88;3.08;;;28.60;99.90;;;;;;4994745;28;20021;-66
2023/08/12 04:42:03;;;;;;;11.25;3.30;;;28.60;99.90;;;;;;4994634;28;20030;-66
2023/08/12 04:44:29;;;;;;;13.15;3.22;;;28.60;99.90;;;;;;4994665;28;20019;-64
2023/08/12 04:46:55;;;;;;;6.40;1.75;;;28.60;99.90;;;;;;4995019;28;20125;-63
2023/08/12 04:49:23;;;;;;;8.15;2.17;;;28.60;99.90;;;;;;4994613;28;20130;-64
2023/08/12 04:51:52;;;;;;;10.25;2.75;;;28.60;99.90;;;;;;4994569;28;20157;-65
2023/08/12 04:54:18;;;;;;;12.35;2.70;;;28.60;99.90;;;;;;4993165;28;20117;-62
2023/08/12 04:56:43;;;;;;;12.63;3.17;;;28.60;99.90;;;;;;4994683;28;20109;-65
2023/08/12 04:59:10;;;;;;;9.45;2.70;;;28.60;99.90;;;;;;4993659;28;20491;-66
2023/08/12 05:01:36;;;;;;;8.73;2.80;;;28.50;99.90;;;;;;4993623;28;20395;-66
2023/08/12 05:04:02;;;;;;;15.73;2.78;;;28.60;99.90;;;;;;4994065;28;20339;-66
2023/08/12 05:06:28;;;;;;;8.00;2.88;;;28.60;99.90;;;;;;4993405;28;20174;-65
2023/08/12 05:08:54;;;;;;;9.02;2.20;;;28.60;99.90;;;;;;4994125;28;20030;-64
2023/08/12 05:11:19;;;;;;;16.25;3.75;;;28.50;99.90;;;;;;4994275;28;20395;-64
2023/08/12 05:13:45;;;;;;;8.93;3.42;;;28.60;99.90;;;;;;4994303;28;20482;-66
2023/08/12 05:16:11;;;;;;;9.25;2.75;;;28.60;99.90;;;;;;5009275;28;20034;-64
2023/08/12 05:18:39;;;;;;;12.90;2.78;;;28.60;99.90;;;;;;4994221;28;20459;-64
2023/08/12 05:21:05;;;;;;;8.85;2.47;;;28.60;99.90;;;;;;4992668;28;20125;-64
2023/08/12 05:23:31;;;;;;;11.07;2.80;;;28.60;99.90;;;;;;4992731;28;20034;-65
2023/08/12 05:25:57;;;;;;;11.20;2.75;;;28.50;99.90;;;;;;4994192;28;20023;-66
2023/08/12 05:28:22;;;;;;;6.90;2.40;;;28.60;99.90;;;;;;4992984;28;20027;-63
2023/08/12 05:30:48;;;;;;;10.10;2.58;;;28.50;99.90;;;;;;4993816;28;20033;-62
2023/08/12 05:33:14;;;;;;;11.63;2.53;;;28.50;99.90;;;;;;4993904;28;20018;-62
2023/08/12 05:35:40;;;;;;;14.93;2.47;;;28.50;99.90;;;;;;4993758;28;20030;-62
2023/08/12 05:38:05;;;;;;;14.48;2.83;;;28.50;99.90;;;;;;4993784;28;20026;-64
2023/08/12 05:40:31;;;;;;;7.88;2.47;;;28.50;99.90;;;;;;4993859;28;20108;-62
2023/08/12 05:42:57;;;;;;;10.73;2.88;;;28.60;99.90;;;;;;4994029;28;20133;-63
2023/08/12 05:45:23;;;;;;;13.30;3.88;;;28.60;99.90;;;;;;5007506;28;20117;-65
2023/08/12 05:47:49;;;;;;;13.82;2.75;;;28.50;99.90;;;;;;4990825;28;20023;-62
2023/08/12 05:50:14;;;;;;;11.20;3.55;;;28.50;99.90;;;;;;5008379;28;20050;-63
2023/08/12 05:52:40;;;;;;;14.00;3.78;;;28.50;99.90;;;;;;4992064;28;20465;-64
2023/08/12 05:55:06;;;;;;;8.40;2.03;;;28.50;99.90;;;;;;4992981;28;20026;-63
2023/08/12 05:57:32;;;;;;;11.07;2.95;;;28.50;99.90;;;;;;4993203;28;20033;-64
2023/08/12 05:59:58;;;;;;;9.50;3.08;;;28.40;99.90;;;;;;4993092;28;20023;-63
2023/08/12 06:02:26;;;;;;;17.70;3.28;;;28.40;99.90;;;;;;4985344;28;20046;-63
2023/08/12 06:04:52;;;;;;;18.77;3.95;;;28.40;99.90;;;;;;4991916;28;20022;-63
2023/08/12 06:07:18;;;;;;;12.82;3.13;;;28.40;99.90;;;;;;4993103;28;20030;-63
2023/08/12 06:09:44;;;;;;;13.82;3.85;;;28.40;99.90;;;;;;4993153;28;20026;-64
2023/08/12 06:12:09;;;;;;;14.25;4.20;;;28.40;99.90;;;;;;4993066;28;20034;-62
2023/08/12 06:14:39;;;;;;;14.75;3.75;;;28.40;99.90;;;;;;4993036;28;20019;-62
2023/08/12 06:17:05;;;;;;;16.15;4.22;;;28.40;99.90;;;;;;4992891;28;20034;-63
2023/08/12 06:19:30;;;;;;;16.48;4.30;;;28.40;99.90;;;;;;4979607;28;20029;-62
2023/08/12 06:21:56;;;;;;;13.35;3.60;;;28.40;99.90;;;;;;5008221;28;20022;-62
2023/08/12 06:24:22;;;;;;;15.57;3.22;;;28.30;99.90;;;;;;4992752;28;20084;-63
2023/08/12 06:26:47;;;;;;;10.10;3.80;;;28.40;99.90;;;;;;4991411;28;20081;-63
2023/08/12 06:29:13;;;;;;;10.35;3.55;;;28.40;99.90;;;;;;4990616;28;20027;-63
2023/08/12 06:31:39;;;;;;;14.68;4.20;;;28.40;99.90;;;;;;5007853;28;20037;-63
2023/08/12 06:34:05;;;;;;;13.90;4.38;;;28.30;99.90;;;;;;4992556;28;20050;-63
2023/08/12 06:36:31;;;;;;;14.38;3.85;;;28.30;99.90;;;;;;4992607;28;20127;-62
2023/08/12 06:38:57;;;;;;;19.23;6.22;;;28.30;99.90;;;;;;4992965;28;20066;-62
2023/08/12 06:41:23;;;;;;;8.75;3.88;;;28.30;99.90;;;;;;4992707;28;20097;-62
2023/08/12 06:43:48;;;;;;;16.70;6.57;;;28.30;99.90;;;;;;4992529;28;20030;-62
2023/08/12 06:46:14;;;;;;;14.13;4.18;;;28.20;99.90;;;;;;4992329;28;20030;-62
2023/08/12 06:48:40;;;;;;;13.48;5.00;;;28.30;99.90;;;;;;4991199;28;20066;-62
2023/08/12 06:51:15;;;;;;;12.70;4.32;;;28.30;99.90;;;;;;4992392;28;20037;-63
2023/08/12 06:53:40;;;;;;;16.15;3.80;;;28.20;99.90;;;;;;4992496;28;20022;-63
2023/08/12 06:56:06;;;;;;;9.35;3.75;;;28.20;99.90;;;;;;4992252;28;20056;-63
2023/08/12 06:58:32;;;;;;;17.73;5.07;;;28.20;99.90;;;;;;4990764;28;20474;-63
2023/08/12 07:00:59;;;;;;;19.33;6.57;;;28.20;99.90;;;;;;4990649;28;20046;-62
2023/08/12 07:03:25;;;;;;;16.05;4.63;;;28.20;99.90;;;;;;4992308;28;20019;-62
2023/08/12 07:05:52;;;;;;;11.38;4.35;;;28.10;99.90;;;;;;4992061;28;20049;-63
2023/08/12 07:08:17;;;;;;;15.43;4.57;;;28.10;99.90;;;;;;4991959;28;20073;-61
2023/08/12 07:10:43;;;;;;;12.25;4.18;;;28.10;99.90;;;;;;4991993;28;20426;-61
2023/08/12 07:13:09;;;;;;;14.52;3.97;;;28.10;99.90;;;;;;4991880;28;20080;-62
2023/08/12 07:15:35;;;;;;;13.90;4.05;;;28.10;99.90;;;;;;4990502;28;20034;-62
2023/08/12 07:18:00;;;;;;;12.88;3.90;;;28.10;99.90;;;;;;4991968;28;20022;-62
2023/08/12 07:20:26;;;;;;;11.80;4.35;;;28.10;99.90;;;;;;4992300;28;20027;-62
2023/08/12 07:22:52;;;;;;;14.77;4.55;;;28.10;99.90;;;;;;4991534;28;20030;-63
2023/08/12 07:25:18;;;;;;;13.73;4.22;;;28.20;99.90;;;;;;4991942;28;20030;-63
2023/08/12 07:27:44;;;;;;;10.77;4.60;;;28.20;99.90;;;;;;4991728;28;20068;-63
2023/08/12 07:30:10;;;;;;;11.57;3.67;;;28.10;99.90;;;;;;4991908;28;20102;-64
2023/08/12 07:32:39;;;;;;;11.15;3.67;;;28.10;99.90;;;;;;4991689;28;20033;-63
2023/08/12 07:35:05;;;;;;;12.20;4.35;;;28.10;99.90;;;;;;4991693;28;20030;-64
2023/08/12 07:37:31;;;;;;;16.20;5.03;;;28.10;99.90;;;;;;4991783;28;20030;-65
2023/08/12 07:39:57;;;;;;;13.35;4.93;;;28.10;99.90;;;;;;4991983;28;20015;-65
2023/08/12 07:42:23;;;;;;;12.20;4.13;;;28.10;99.90;;;;;;4991979;28;20049;-66
2023/08/12 07:44:49;;;;;;;16.60;4.20;;;28.10;99.90;;;;;;4991655;28;20044;-65
2023/08/12 07:47:15;;;;;;;15.93;4.47;;;28.10;99.90;;;;;;4991902;28;20037;-66
2023/08/12 07:49:41;;;;;;;17.80;5.35;;;28.10;99.90;;;;;;4991668;28;20121;-65
2023/08/12 07:52:07;;;;;;;15.60;4.10;;;28.10;99.90;;;;;;4990518;28;20053;-65
2023/08/12 07:54:33;;;;;;;12.63;4.35;;;28.10;99.90;;;;;;4991613;28;20490;-65
2023/08/12 07:56:58;;;;;;;16.40;4.47;;;28.10;99.90;;;;;;4990182;28;20034;-63
2023/08/12 07:59:25;;;;;;;18.67;4.45;;;28.10;99.90;;;;;;4992100;28;20033;-64
2023/08/12 08:01:51;;;;;;;16.98;6.53;;;28.10;99.90;;;;;;4991318;28;20046;-62
2023/08/12 08:04:17;;;;;;;13.65;4.13;;;28.10;99.90;;;;;;4991545;28;20041;-63
2023/08/12 08:06:43;;;;;;;13.50;4.28;;;28.20;99.90;;;;;;4991357;28;20027;-62
2023/08/12 08:09:10;;;;;;;14.48;4.65;;;28.20;99.90;;;;;;4991531;28;20025;-63
2023/08/12 08:11:36;;;;;;;14.60;4.05;;;28.20;99.90;;;;;;4991418;28;20026;-63
2023/08/12 08:14:02;;;;;;;13.93;4.45;;;28.30;99.90;;;;;;4991205;28;20084;-64
2023/08/12 08:16:28;;;;;;;11.63;4.65;;;28.30;99.90;;;;;;4991525;28;20043;-64
2023/08/12 08:18:54;;;;;;;19.35;4.10;;;28.40;99.90;;;;;;4991586;28;20033;-64
2023/08/12 08:21:20;;;;;;;18.77;4.60;;;28.30;99.90;;;;;;4991549;28;20023;-65
2023/08/12 08:23:46;;;;;;;13.35;4.43;;;28.40;99.90;;;;;;4991379;28;20026;-63
2023/08/12 08:26:13;;;;;;;11.90;4.28;;;28.30;99.90;;;;;;4991195;28;20073;-63
2023/08/12 08:28:38;;;;;;;13.77;5.15;;;28.30;99.90;;;;;;4991549;28;20046;-64
2023/08/12 08:31:04;;;;;;;11.50;4.18;;;28.30;99.90;;;;;;4991347;28;20140;-63
2023/08/12 08:33:30;;;;;;;16.00;5.10;;;28.30;99.90;;;;;;5006610;28;20026;-64
2023/08/12 08:35:56;;;;;;;11.23;4.13;;;28.40;99.90;;;;;;4993171;28;20050;-65
2023/08/12 08:38:22;;;;;;;17.55;7.35;;;28.40;99.90;;;;;;4994935;28;20471;-64
2023/08/12 08:40:50;;;;;;;17.05;6.00;;;28.40;99.90;;;;;;4994826;28;20065;-63
2023/08/12 08:43:21;;;;;;;15.48;5.75;;;28.40;99.90;;;;;;4994751;28;20093;-63
2023/08/12 08:45:52;;;;;;;14.73;4.53;;;28.50;99.90;;;;;;4994752;28;20194;-63
2023/08/12 08:48:19;;;;;;;13.13;4.32;;;28.50;99.90;;;;;;4994593;28;20088;-62
2023/08/12 08:50:45;;;;;;;19.50;4.90;;;28.50;99.90;;;;;;4994738;28;20058;-64
2023/08/12 08:53:12;;;;;;;17.88;8.18;;;28.60;99.90;;;;;;4994538;28;20125;-64
2023/08/12 08:55:40;;;;;;;21.05;7.95;;;28.60;99.90;;;;;;4994566;28;20045;-63
2023/08/12 08:58:06;;;;;;;12.85;4.95;;;28.60;99.90;;;;;;4993056;28;20062;-64
2023/08/12 09:00:32;;;;;;;18.42;6.20;;;28.70;99.90;;;;;;4994308;28;20054;-64
2023/08/12 09:02:58;;;;;;;18.63;6.15;;;28.70;99.90;;;;;;4989809;28;20058;-64
2023/08/12 09:05:26;;;;;;;10.77;4.55;;;28.80;99.90;;;;;;4994456;28;20061;-62
2023/08/12 09:07:54;;;;;;;14.77;5.70;;;28.80;99.90;;;;;;4994339;28;20022;-64
2023/08/12 09:10:23;;;;;;;11.13;5.13;;;28.80;99.90;;;;;;4994110;28;20057;-64
2023/08/12 09:12:52;;;;;;;14.75;4.75;;;28.80;99.90;;;;;;4994145;28;20014;-64
2023/08/12 09:15:18;;;;;;;12.68;4.63;;;28.90;99.90;;;;;;4994115;28;20077;-62
2023/08/12 09:17:44;;;;;;;13.48;4.55;;;28.80;99.90;;;;;;4994062;28;20033;-63
2023/08/12 09:20:13;;;;;;;15.30;4.80;;;28.80;99.90;;;;;;4994170;28;20022;-64
2023/08/12 09:22:43;;;;;;;16.15;6.22;;;28.80;99.90;;;;;;4992702;28;20110;-64
2023/08/12 09:25:10;;;;;;;11.10;4.50;;;28.90;99.90;;;;;;5008991;28;20065;-62
2023/08/12 09:27:39;;;;;;;14.40;5.78;;;28.90;99.90;;;;;;4992447;28;20459;-64
2023/08/12 09:30:06;;;;;;;11.20;5.32;;;29.00;99.90;;;;;;4993917;28;20081;-64
2023/08/12 09:32:34;;;;;;;18.52;4.80;;;29.00;99.90;;;;;;4993766;28;20026;-65
2023/08/12 09:35:02;;;;;;;10.15;4.13;;;29.00;99.90;;;;;;4993728;28;20100;-65
2023/08/12 09:37:28;;;;;;;11.20;4.43;;;29.00;99.90;;;;;;4992538;28;20505;-65
2023/08/12 09:39:56;;;;;;;13.02;4.97;;;29.00;99.90;;;;;;4992692;28;20018;-64
2023/08/12 09:42:22;;;;;;;9.00;4.00;;;29.10;99.90;;;;;;4993614;28;20050;-63
2023/08/12 09:44:47;;;;;;;14.77;4.85;;;29.10;99.90;;;;;;4992109;28;20064;-64
2023/08/12 09:47:14;;;;;;;11.68;3.88;;;29.10;99.90;;;;;;5008610;28;20022;-62
2023/08/12 09:49:40;;;;;;;19.10;5.40;;;29.10;99.90;;;;;;4993368;28;20018;-63
2023/08/12 09:52:07;;;;;;;14.05;5.55;;;29.10;99.90;;;;;;4992675;28;20032;-63
2023/08/12 09:54:33;;;;;;;16.88;5.93;;;29.10;99.90;;;;;;4993482;28;20375;-64
2023/08/12 09:57:00;;;;;;;10.43;5.05;;;29.10;99.90;;;;;;4993344;28;20030;-62
2023/08/12 09:59:37;;;;;;;12.45;5.05;;;29.00;99.90;;;;;;4992362;28;20022;-64
2023/08/12 10:02:05;;;;;;;14.23;4.63;;;29.10;99.90;;;;;;4992829;28;20517;-64
2023/08/12 10:04:44;;;;;;;15.35;5.15;;;29.10;99.90;;;;;;4992487;28;20109;-66
2023/08/12 10:07:12;;;;;;;9.73;4.18;;;29.10;99.90;;;;;;4980047;28;20475;-64
2023/08/12 10:09:39;;;;;;;10.05;4.47;;;29.10;99.90;;;;;;4992986;28;20390;-64
2023/08/12 10:12:06;;;;;;;13.82;5.40;;;29.10;99.90;;;;;;4992415;28;20486;-64
2023/08/12 10:14:33;;;;;;;;;;;29.10;99.90;;;;;;4993425;28;20048;-64
2023/08/12 10:16:59;;;;;;;18.53;4.63;;;29.10;99.90;;;;;;4992784;28;19991;-65
2023/08/12 10:19:26;;;;;;;16.52;7.35;;;29.10;99.90;;;;;;4992692;28;20030;-64
2023/08/12 10:21:58;;;;;;;13.05;4.70;;;29.10;99.90;;;;;;4992448;28;20109;-64
2023/08/12 10:24:27;;;;;;;15.13;4.10;;;29.10;99.90;;;;;;4991012;28;20040;-65
2023/08/12 10:26:53;;;;;;;11.65;4.40;;;29.20;99.90;;;;;;4992826;28;20054;-66
2023/08/12 10:29:20;;;;;;;15.07;5.97;;;29.20;99.90;;;;;;4990815;28;20403;-63
2023/08/12 10:31:47;;;;;;;10.35;5.03;;;29.20;99.90;;;;;;5004211;28;20118;-63
2023/08/12 10:34:23;;;;;;;19.85;4.97;;;29.20;99.90;;;;;;4991263;28;20018;-63
2023/08/12 10:36:55;;;;;;;15.05;7.03;;;29.30;99.90;;;;;;4992248;28;20131;-64
2023/08/12 10:39:26;;;;;;;17.13;6.30;;;29.20;99.90;;;;;;4991767;28;20026;-62
2023/08/12 10:41:54;;;;;;;16.70;6.60;;;29.30;99.90;;;;;;4992135;28;20137;-63
2023/08/12 10:44:22;;;;;;;15.35;5.20;;;29.30;99.90;;;;;;4986889;28;20376;-62
2023/08/12 10:46:52;;;;;;;15.65;5.45;;;29.40;99.90;;;;;;4990819;28;20097;-66
2023/08/12 10:49:21;;;;;;;18.00;5.65;;;29.40;99.90;;;;;;4991190;28;20088;-62
2023/08/12 10:51:54;;;;;;;16.98;5.45;;;29.40;99.90;;;;;;4992407;28;20102;-63
2023/08/12 10:54:31;;;;;;;12.40;5.53;;;29.50;99.90;;;;;;4990874;28;20426;-63
2023/08/12 10:57:03;;;;;;;12.63;4.97;;;29.50;99.90;;;;;;4979885;28;20041;-65
2023/08/12 10:59:53;;;;;;;14.27;5.10;;;29.40;99.90;;;;;;4991733;28;20483;-64
2023/08/12 11:02:28;;;;;;;14.55;4.60;;;29.50;99.90;;;;;;4991540;28;20534;-67
2023/08/12 11:04:54;;;;;;;13.15;4.70;;;29.50;99.90;;;;;;4990758;28;20026;-62
2023/08/12 11:07:23;;;;;;;14.00;4.68;;;29.60;99.90;;;;;;4978345;28;20034;-61
2023/08/12 11:09:55;;;;;;;12.82;5.53;;;29.60;99.90;;;;;;4981048;28;20501;-62
2023/08/12 11:12:34;;;;;;;12.90;5.18;;;29.60;99.90;;;;;;4982157;28;20497;-63
2023/08/12 11:15:01;;;;;;;15.77;4.78;;;29.60;99.90;;;;;;4977531;28;20026;-64
2023/08/12 11:17:34;;;;;;;17.80;4.32;;;29.60;99.90;;;;;;4983666;28;20051;-62
2023/08/12 11:20:00;;;;;;;12.38;4.10;;;29.70;99.90;;;;;;4979781;28;20046;-62
2023/08/12 11:22:27;;;;;;;27.98;5.65;;;29.60;99.90;;;;;;4980587;28;20054;-63
2023/08/12 11:24:53;;;;;;;7.70;3.45;;;29.60;99.90;;;;;;4984914;28;20101;-62
2023/08/12 11:27:19;;;;;;;11.68;3.67;;;29.60;99.90;;;;;;4996284;28;20539;-62
2023/08/12 11:29:45;;;;;;;5.65;3.40;;;29.70;99.90;;;;;;4977076;28;20046;-62
2023/08/12 11:32:11;;;;;;;11.95;3.55;;;29.60;99.90;;;;;;4977683;28;20031;-59
2023/08/12 11:34:37;;;;;;;10.80;3.65;;;29.60;99.90;;;;;;4982022;28;20076;-61
2023/08/12 11:37:03;;;;;;;10.07;3.53;;;29.60;99.90;;;;;;4980935;28;20043;-62
2023/08/12 11:39:29;;;;;;;8.63;3.13;;;29.60;99.90;;;;;;4985296;28;20023;-61
2023/08/12 11:41:57;;;;;;;10.23;3.95;;;29.60;99.90;;;;;;4980941;28;20052;-62
2023/08/12 11:44:23;;;;;;;7.10;4.65;;;29.60;99.90;;;;;;4992500;28;20423;-64
2023/08/12 11:46:49;;;;;;;8.43;3.47;;;29.50;99.90;;;;;;4977703;28;20026;-63
2023/08/12 11:49:15;;;;;;;5.82;3.35;;;29.60;99.90;;;;;;4987523;28;20038;-62
2023/08/12 11:51:44;;;;;;;10.55;4.57;;;29.50;99.90;;;;;;4987859;28;20030;-63
2023/08/12 11:54:10;;;;;;;15.57;4.00;;;29.50;99.90;;;;;;4983830;28;20085;-64
2023/08/12 11:56:36;;;;;;;12.02;4.55;;;29.60;99.90;;;;;;4986206;28;20026;-63
2023/08/12 11:59:02;;;;;;;14.05;5.10;;;29.60;99.90;;;;;;4988285;28;20126;-63
2023/08/12 12:01:28;;;;;;;11.15;5.45;;;29.60;99.90;;;;;;4976696;28;20616;-64
2023/08/12 12:03:54;;;;;;;11.10;5.07;;;29.60;99.90;;;;;;4979511;28;20038;-63
2023/08/12 12:06:36;;;;;;;8.07;4.68;;;29.60;99.90;;;;;;4982868;28;20035;-62
2023/08/12 12:09:09;;;;;;;12.95;5.28;;;29.60;99.90;;;;;;4985882;28;20026;-63
2023/08/12 12:11:39;;;;;;;19.23;6.55;;;29.60;99.90;;;;;;4984063;28;20034;-63
2023/08/12 12:14:06;;;;;;;24.20;15.95;;;29.70;99.90;;;;;;4981285;28;20034;-62
2023/08/12 12:16:44;;;;;;;17.67;9.15;;;29.70;99.90;;;;;;4986147;28;20050;-61
2023/08/12 12:19:17;;;;;;;12.77;5.28;;;29.70;99.90;;;;;;4983300;28;20039;-62
2023/08/12 12:21:45;;;;;;;12.30;5.50;;;29.70;99.90;;;;;;4980220;28;20023;-64
2023/08/12 12:24:11;;;;;;;13.85;6.03;;;29.70;99.90;;;;;;4979658;28;20027;-63
2023/08/12 12:26:37;;;;;;;16.33;5.65;;;29.70;99.90;;;;;;4986243;28;20042;-65
2023/08/12 12:29:06;;;;;;;13.50;5.13;;;29.70;99.90;;;;;;4977390;28;20105;-63
2023/08/12 12:31:34;;;;;;;13.05;5.13;;;29.70;99.90;;;;;;4979186;28;20388;-60
2023/08/12 12:34:01;;;;;;;10.73;4.68;;;29.70;99.90;;;;;;4977267;28;20095;-65
2023/08/12 12:36:27;;;;;;;16.33;5.72;;;29.70;99.90;;;;;;4988231;28;20041;-61
2023/08/12 12:38:53;;;;;;;12.95;4.97;;;29.70;99.90;;;;;;4998933;28;20487;-62